sensor_id;sensor_type;location;lat;lon;timestamp;P1;durP1;ratioP1;P2;durP2;ratioP2
11016;SDS011;54687;50.800;6.772;2023-11-21T00:01:01;11.80;;;9.90;;
11016;SDS011;54687;50.800;6.772;2023-11-21T00:03:29;11.75;;;10.55;;
11016;SDS011;54687;50.800;6.772;2023-11-21T00:05:55;14.30;;;11.07;;
11016;SDS011;54687;50.800;6.772;2023-11-21T00:08:23;13.70;;;10.80;;
11016;SDS011;54687;50.800;6.772;2023-11-21T00:10:50;13.90;;;11.13;;
11016;SDS011;54687;50.800;6.772;2023-11-21T00:13:17;15.35;;;13.40;;
11016;SDS011;54687;50.800;6.772;2023-11-21T00:15:44;15.23;;;13.30;;
11016;SDS011;54687;50.800;6.772;2023-11-21T00:18:10;14.93;;;13.40;;
11016;SDS011;54687;50.800;6.772;2023-11-21T00:20:37;18.50;;;14.77;;
11016;SDS011;54687;50.800;6.772;2023-11-21T00:23:03;21.35;;;14.98;;
11016;SDS011;54687;50.800;6.772;2023-11-21T00:25:31;17.67;;;15.07;;
11016;SDS011;54687;50.800;6.772;2023-11-21T00:27:58;16.50;;;14.90;;
11016;SDS011;54687;50.800;6.772;2023-11-21T00:30:26;20.55;;;15.95;;
11016;SDS011;54687;50.800;6.772;2023-11-21T00:32:54;19.73;;;16.90;;
11016;SDS011;54687;50.800;6.772;2023-11-21T00:35:20;23.30;;;17.33;;
11016;SDS011;54687;50.800;6.772;2023-11-21T00:37:47;25.20;;;19.63;;
11016;SDS011;54687;50.800;6.772;2023-11-21T00:40:14;24.85;;;20.15;;
11016;SDS011;54687;50.800;6.772;2023-11-21T00:42:45;26.25;;;19.88;;
11016;SDS011;54687;50.800;6.772;2023-11-21T00:45:12;27.30;;;19.38;;
11016;SDS011;54687;50.800;6.772;2023-11-21T00:47:39;23.42;;;19.58;;
11016;SDS011;54687;50.800;6.772;2023-11-21T00:50:06;25.23;;;20.45;;
11016;SDS011;54687;50.800;6.772;2023-11-21T00:52:33;25.23;;;20.08;;
11016;SDS011;54687;50.800;6.772;2023-11-21T00:54:59;25.63;;;20.90;;
11016;SDS011;54687;50.800;6.772;2023-11-21T00:57:26;28.90;;;20.63;;
11016;SDS011;54687;50.800;6.772;2023-11-21T00:59:54;27.27;;;20.23;;
11016;SDS011;54687;50.800;6.772;2023-11-21T01:02:21;25.50;;;19.30;;
11016;SDS011;54687;50.800;6.772;2023-11-21T01:04:47;26.38;;;20.80;;
11016;SDS011;54687;50.800;6.772;2023-11-21T01:07:14;31.02;;;22.73;;
11016;SDS011;54687;50.800;6.772;2023-11-21T01:09:42;28.63;;;20.80;;
11016;SDS011;54687;50.800;6.772;2023-11-21T01:12:09;28.60;;;21.83;;
11016;SDS011;54687;50.800;6.772;2023-11-21T01:14:36;33.75;;;23.17;;
11016;SDS011;54687;50.800;6.772;2023-11-21T01:17:04;31.02;;;23.42;;
11016;SDS011;54687;50.800;6.772;2023-11-21T01:19:33;31.70;;;22.42;;
11016;SDS011;54687;50.800;6.772;2023-11-21T01:22:00;25.73;;;21.92;;
11016;SDS011;54687;50.800;6.772;2023-11-21T01:24:28;29.05;;;21.92;;
11016;SDS011;54687;50.800;6.772;2023-11-21T01:26:55;30.48;;;24.02;;
11016;SDS011;54687;50.800;6.772;2023-11-21T01:29:21;34.53;;;24.08;;
11016;SDS011;54687;50.800;6.772;2023-11-21T01:31:48;27.30;;;23.05;;
11016;SDS011;54687;50.800;6.772;2023-11-21T01:34:16;30.60;;;24.58;;
11016;SDS011;54687;50.800;6.772;2023-11-21T01:36:45;30.98;;;24.05;;
11016;SDS011;54687;50.800;6.772;2023-11-21T01:39:11;33.13;;;25.52;;
11016;SDS011;54687;50.800;6.772;2023-11-21T01:41:43;31.02;;;24.25;;
11016;SDS011;54687;50.800;6.772;2023-11-21T01:44:13;29.73;;;23.80;;
11016;SDS011;54687;50.800;6.772;2023-11-21T01:46:41;30.67;;;24.67;;
11016;SDS011;54687;50.800;6.772;2023-11-21T01:49:07;25.55;;;22.83;;
11016;SDS011;54687;50.800;6.772;2023-11-21T01:51:40;25.45;;;21.52;;
11016;SDS011;54687;50.800;6.772;2023-11-21T01:54:08;32.03;;;23.67;;
11016;SDS011;54687;50.800;6.772;2023-11-21T01:56:37;25.95;;;22.77;;
11016;SDS011;54687;50.800;6.772;2023-11-21T01:59:04;30.67;;;23.50;;
11016;SDS011;54687;50.800;6.772;2023-11-21T02:01:32;26.63;;;22.52;;
11016;SDS011;54687;50.800;6.772;2023-11-21T02:04:00;23.83;;;21.25;;
11016;SDS011;54687;50.800;6.772;2023-11-21T02:06:28;24.17;;;21.38;;
11016;SDS011;54687;50.800;6.772;2023-11-21T02:08:58;24.83;;;21.25;;
11016;SDS011;54687;50.800;6.772;2023-11-21T02:11:25;26.67;;;20.77;;
11016;SDS011;54687;50.800;6.772;2023-11-21T02:13:52;27.17;;;19.95;;
11016;SDS011;54687;50.800;6.772;2023-11-21T02:16:20;27.75;;;19.63;;
11016;SDS011;54687;50.800;6.772;2023-11-21T02:18:48;27.52;;;21.10;;
11016;SDS011;54687;50.800;6.772;2023-11-21T02:21:15;25.45;;;19.95;;
11016;SDS011;54687;50.800;6.772;2023-11-21T02:23:43;33.75;;;21.48;;
11016;SDS011;54687;50.800;6.772;2023-11-21T02:26:11;24.52;;;19.67;;
11016;SDS011;54687;50.800;6.772;2023-11-21T02:28:39;29.92;;;19.90;;
11016;SDS011;54687;50.800;6.772;2023-11-21T02:31:05;25.52;;;20.25;;
11016;SDS011;54687;50.800;6.772;2023-11-21T02:33:33;29.25;;;21.55;;
11016;SDS011;54687;50.800;6.772;2023-11-21T02:36:00;22.45;;;18.35;;
11016;SDS011;54687;50.800;6.772;2023-11-21T02:38:28;21.92;;;18.10;;
11016;SDS011;54687;50.800;6.772;2023-11-21T02:40:57;28.80;;;18.60;;
11016;SDS011;54687;50.800;6.772;2023-11-21T02:43:24;22.77;;;19.48;;
11016;SDS011;54687;50.800;6.772;2023-11-21T02:45:51;23.88;;;20.45;;
11016;SDS011;54687;50.800;6.772;2023-11-21T02:48:17;22.77;;;19.08;;
11016;SDS011;54687;50.800;6.772;2023-11-21T02:50:44;23.45;;;18.73;;
11016;SDS011;54687;50.800;6.772;2023-11-21T02:53:10;25.35;;;19.02;;
11016;SDS011;54687;50.800;6.772;2023-11-21T02:55:37;25.20;;;19.40;;
11016;SDS011;54687;50.800;6.772;2023-11-21T02:58:05;24.42;;;18.13;;
11016;SDS011;54687;50.800;6.772;2023-11-21T03:00:32;23.65;;;18.45;;
11016;SDS011;54687;50.800;6.772;2023-11-21T03:02:58;23.63;;;18.52;;
11016;SDS011;54687;50.800;6.772;2023-11-21T03:05:25;21.25;;;18.10;;
11016;SDS011;54687;50.800;6.772;2023-11-21T03:07:54;22.83;;;18.58;;
11016;SDS011;54687;50.800;6.772;2023-11-21T03:10:20;21.27;;;17.85;;
11016;SDS011;54687;50.800;6.772;2023-11-21T03:12:48;22.85;;;19.10;;
11016;SDS011;54687;50.800;6.772;2023-11-21T03:15:16;21.35;;;18.30;;
11016;SDS011;54687;50.800;6.772;2023-11-21T03:17:42;22.92;;;18.00;;
11016;SDS011;54687;50.800;6.772;2023-11-21T03:20:09;19.63;;;16.88;;
11016;SDS011;54687;50.800;6.772;2023-11-21T03:22:37;20.33;;;17.92;;
11016;SDS011;54687;50.800;6.772;2023-11-21T03:25:04;18.05;;;16.08;;
11016;SDS011;54687;50.800;6.772;2023-11-21T03:27:31;22.33;;;16.40;;
11016;SDS011;54687;50.800;6.772;2023-11-21T03:29:58;22.40;;;16.08;;
11016;SDS011;54687;50.800;6.772;2023-11-21T03:32:26;20.75;;;16.67;;
11016;SDS011;54687;50.800;6.772;2023-11-21T03:34:53;17.45;;;15.02;;
11016;SDS011;54687;50.800;6.772;2023-11-21T03:37:22;16.35;;;14.63;;
11016;SDS011;54687;50.800;6.772;2023-11-21T03:39:49;18.83;;;15.13;;
11016;SDS011;54687;50.800;6.772;2023-11-21T03:42:17;19.35;;;14.70;;
11016;SDS011;54687;50.800;6.772;2023-11-21T03:44:43;20.48;;;15.77;;
11016;SDS011;54687;50.800;6.772;2023-11-21T03:47:10;18.83;;;14.38;;
11016;SDS011;54687;50.800;6.772;2023-11-21T03:49:38;17.25;;;14.60;;
11016;SDS011;54687;50.800;6.772;2023-11-21T03:52:05;15.85;;;13.88;;
11016;SDS011;54687;50.800;6.772;2023-11-21T03:54:34;21.17;;;14.70;;
11016;SDS011;54687;50.800;6.772;2023-11-21T03:57:01;15.93;;;12.70;;
11016;SDS011;54687;50.800;6.772;2023-11-21T03:59:27;15.60;;;13.20;;
11016;SDS011;54687;50.800;6.772;2023-11-21T04:01:54;17.00;;;12.90;;
11016;SDS011;54687;50.800;6.772;2023-11-21T04:04:22;18.10;;;13.50;;
11016;SDS011;54687;50.800;6.772;2023-11-21T04:06:50;18.27;;;13.85;;
11016;SDS011;54687;50.800;6.772;2023-11-21T04:09:17;18.33;;;13.35;;
11016;SDS011;54687;50.800;6.772;2023-11-21T04:11:44;16.58;;;14.32;;
11016;SDS011;54687;50.800;6.772;2023-11-21T04:14:11;18.60;;;14.20;;
11016;SDS011;54687;50.800;6.772;2023-11-21T04:16:37;17.27;;;12.63;;
11016;SDS011;54687;50.800;6.772;2023-11-21T04:19:04;15.77;;;12.45;;
11016;SDS011;54687;50.800;6.772;2023-11-21T04:21:30;14.60;;;12.98;;
11016;SDS011;54687;50.800;6.772;2023-11-21T04:23:59;17.45;;;13.13;;
11016;SDS011;54687;50.800;6.772;2023-11-21T04:26:26;15.63;;;12.45;;
11016;SDS011;54687;50.800;6.772;2023-11-21T04:28:53;16.20;;;13.20;;
11016;SDS011;54687;50.800;6.772;2023-11-21T04:31:19;15.95;;;12.45;;
11016;SDS011;54687;50.800;6.772;2023-11-21T04:33:46;18.40;;;12.68;;
11016;SDS011;54687;50.800;6.772;2023-11-21T04:36:12;16.60;;;13.23;;
11016;SDS011;54687;50.800;6.772;2023-11-21T04:38:39;15.07;;;11.98;;
11016;SDS011;54687;50.800;6.772;2023-11-21T04:41:07;14.60;;;12.13;;
11016;SDS011;54687;50.800;6.772;2023-11-21T04:43:34;16.35;;;12.52;;
11016;SDS011;54687;50.800;6.772;2023-11-21T04:46:01;14.15;;;12.75;;
11016;SDS011;54687;50.800;6.772;2023-11-21T04:48:28;15.73;;;12.88;;
11016;SDS011;54687;50.800;6.772;2023-11-21T04:50:54;16.90;;;13.88;;
11016;SDS011;54687;50.800;6.772;2023-11-21T04:53:21;15.77;;;13.93;;
11016;SDS011;54687;50.800;6.772;2023-11-21T04:55:47;17.35;;;13.52;;
11016;SDS011;54687;50.800;6.772;2023-11-21T04:58:15;17.35;;;13.60;;
11016;SDS011;54687;50.800;6.772;2023-11-21T05:00:42;16.40;;;14.07;;
11016;SDS011;54687;50.800;6.772;2023-11-21T05:03:09;16.80;;;13.55;;
11016;SDS011;54687;50.800;6.772;2023-11-21T05:05:37;16.15;;;13.93;;
11016;SDS011;54687;50.800;6.772;2023-11-21T05:08:03;18.90;;;13.45;;
11016;SDS011;54687;50.800;6.772;2023-11-21T05:10:30;17.90;;;13.55;;
11016;SDS011;54687;50.800;6.772;2023-11-21T05:12:57;17.15;;;13.13;;
11016;SDS011;54687;50.800;6.772;2023-11-21T05:15:25;17.88;;;14.45;;
11016;SDS011;54687;50.800;6.772;2023-11-21T05:17:52;21.08;;;14.35;;
11016;SDS011;54687;50.800;6.772;2023-11-21T05:20:20;16.15;;;14.27;;
11016;SDS011;54687;50.800;6.772;2023-11-21T05:22:47;16.27;;;14.55;;
11016;SDS011;54687;50.800;6.772;2023-11-21T05:25:14;18.65;;;15.23;;
11016;SDS011;54687;50.800;6.772;2023-11-21T05:27:43;17.33;;;15.60;;
11016;SDS011;54687;50.800;6.772;2023-11-21T05:30:10;18.92;;;16.10;;
11016;SDS011;54687;50.800;6.772;2023-11-21T05:32:39;19.67;;;16.25;;
11016;SDS011;54687;50.800;6.772;2023-11-21T05:35:08;20.25;;;17.95;;
11016;SDS011;54687;50.800;6.772;2023-11-21T05:37:38;22.55;;;19.13;;
11016;SDS011;54687;50.800;6.772;2023-11-21T05:40:05;21.20;;;18.52;;
11016;SDS011;54687;50.800;6.772;2023-11-21T05:42:33;21.15;;;18.23;;
11016;SDS011;54687;50.800;6.772;2023-11-21T05:45:00;19.70;;;17.55;;
11016;SDS011;54687;50.800;6.772;2023-11-21T05:47:35;21.45;;;19.25;;
11016;SDS011;54687;50.800;6.772;2023-11-21T05:50:04;20.83;;;18.27;;
11016;SDS011;54687;50.800;6.772;2023-11-21T05:52:35;21.30;;;19.00;;
11016;SDS011;54687;50.800;6.772;2023-11-21T05:55:02;21.55;;;18.35;;
11016;SDS011;54687;50.800;6.772;2023-11-21T05:57:30;23.48;;;19.98;;
11016;SDS011;54687;50.800;6.772;2023-11-21T05:59:56;23.63;;;20.40;;
11016;SDS011;54687;50.800;6.772;2023-11-21T06:02:23;21.73;;;19.42;;
11016;SDS011;54687;50.800;6.772;2023-11-21T06:04:50;22.67;;;20.27;;
11016;SDS011;54687;50.800;6.772;2023-11-21T06:07:18;22.35;;;19.55;;
11016;SDS011;54687;50.800;6.772;2023-11-21T06:09:44;25.95;;;21.02;;
11016;SDS011;54687;50.800;6.772;2023-11-21T06:12:11;22.02;;;19.60;;
11016;SDS011;54687;50.800;6.772;2023-11-21T06:14:38;22.05;;;19.50;;
11016;SDS011;54687;50.800;6.772;2023-11-21T06:17:04;21.25;;;18.92;;
11016;SDS011;54687;50.800;6.772;2023-11-21T06:19:31;25.45;;;19.52;;
11016;SDS011;54687;50.800;6.772;2023-11-21T06:21:57;22.95;;;19.50;;
11016;SDS011;54687;50.800;6.772;2023-11-21T06:24:26;22.58;;;18.90;;
11016;SDS011;54687;50.800;6.772;2023-11-21T06:26:53;22.10;;;19.45;;
11016;SDS011;54687;50.800;6.772;2023-11-21T06:29:19;23.80;;;21.20;;
11016;SDS011;54687;50.800;6.772;2023-11-21T06:31:47;22.00;;;19.80;;
11016;SDS011;54687;50.800;6.772;2023-11-21T06:34:13;21.85;;;19.23;;
11016;SDS011;54687;50.800;6.772;2023-11-21T06:36:40;23.67;;;19.73;;
11016;SDS011;54687;50.800;6.772;2023-11-21T06:39:06;24.20;;;20.00;;
11016;SDS011;54687;50.800;6.772;2023-11-21T06:41:35;20.95;;;18.75;;
11016;SDS011;54687;50.800;6.772;2023-11-21T06:44:04;24.63;;;20.48;;
11016;SDS011;54687;50.800;6.772;2023-11-21T06:46:30;22.88;;;20.38;;
11016;SDS011;54687;50.800;6.772;2023-11-21T06:48:57;23.58;;;20.23;;
11016;SDS011;54687;50.800;6.772;2023-11-21T06:51:23;23.15;;;20.60;;
11016;SDS011;54687;50.800;6.772;2023-11-21T06:53:50;26.13;;;21.58;;
11016;SDS011;54687;50.800;6.772;2023-11-21T06:56:17;24.80;;;20.55;;
11016;SDS011;54687;50.800;6.772;2023-11-21T06:58:46;22.45;;;20.05;;
11016;SDS011;54687;50.800;6.772;2023-11-21T07:01:12;22.67;;;20.27;;
11016;SDS011;54687;50.800;6.772;2023-11-21T07:03:40;25.00;;;20.63;;
11016;SDS011;54687;50.800;6.772;2023-11-21T07:06:07;23.30;;;20.80;;
11016;SDS011;54687;50.800;6.772;2023-11-21T07:08:35;22.80;;;19.70;;
11016;SDS011;54687;50.800;6.772;2023-11-21T07:11:02;23.35;;;20.85;;
11016;SDS011;54687;50.800;6.772;2023-11-21T07:13:29;23.58;;;20.45;;
11016;SDS011;54687;50.800;6.772;2023-11-21T07:15:57;22.95;;;18.77;;
11016;SDS011;54687;50.800;6.772;2023-11-21T07:18:24;20.17;;;18.08;;
11016;SDS011;54687;50.800;6.772;2023-11-21T07:20:51;21.02;;;18.77;;
11016;SDS011;54687;50.800;6.772;2023-11-21T07:23:18;23.27;;;18.73;;
11016;SDS011;54687;50.800;6.772;2023-11-21T07:25:44;20.33;;;18.23;;
11016;SDS011;54687;50.800;6.772;2023-11-21T07:28:11;19.15;;;17.08;;
11016;SDS011;54687;50.800;6.772;2023-11-21T07:30:38;20.90;;;18.27;;
11016;SDS011;54687;50.800;6.772;2023-11-21T07:33:05;20.45;;;18.23;;
11016;SDS011;54687;50.800;6.772;2023-11-21T07:35:32;20.55;;;18.38;;
11016;SDS011;54687;50.800;6.772;2023-11-21T07:37:59;22.00;;;18.10;;
11016;SDS011;54687;50.800;6.772;2023-11-21T07:40:26;21.75;;;18.52;;
11016;SDS011;54687;50.800;6.772;2023-11-21T07:42:53;19.10;;;16.98;;
11016;SDS011;54687;50.800;6.772;2023-11-21T07:45:22;20.23;;;17.80;;
11016;SDS011;54687;50.800;6.772;2023-11-21T07:47:49;18.27;;;16.38;;
11016;SDS011;54687;50.800;6.772;2023-11-21T07:50:17;18.73;;;16.83;;
11016;SDS011;54687;50.800;6.772;2023-11-21T07:52:44;20.73;;;17.13;;
11016;SDS011;54687;50.800;6.772;2023-11-21T07:55:10;22.08;;;16.80;;
11016;SDS011;54687;50.800;6.772;2023-11-21T07:57:37;20.50;;;17.10;;
11016;SDS011;54687;50.800;6.772;2023-11-21T08:00:04;21.58;;;18.48;;
11016;SDS011;54687;50.800;6.772;2023-11-21T08:02:34;19.33;;;17.25;;
11016;SDS011;54687;50.800;6.772;2023-11-21T08:05:00;20.38;;;17.48;;
11016;SDS011;54687;50.800;6.772;2023-11-21T08:07:28;21.30;;;17.05;;
11016;SDS011;54687;50.800;6.772;2023-11-21T08:09:56;19.92;;;17.15;;
11016;SDS011;54687;50.800;6.772;2023-11-21T08:12:23;22.63;;;16.70;;
11016;SDS011;54687;50.800;6.772;2023-11-21T08:14:52;21.38;;;16.58;;
11016;SDS011;54687;50.800;6.772;2023-11-21T08:17:20;20.15;;;16.73;;
11016;SDS011;54687;50.800;6.772;2023-11-21T08:19:46;17.65;;;15.77;;
11016;SDS011;54687;50.800;6.772;2023-11-21T08:22:14;21.02;;;16.67;;
11016;SDS011;54687;50.800;6.772;2023-11-21T08:24:42;19.52;;;17.25;;
11016;SDS011;54687;50.800;6.772;2023-11-21T08:27:09;19.05;;;16.67;;
11016;SDS011;54687;50.800;6.772;2023-11-21T08:29:36;20.15;;;16.92;;
11016;SDS011;54687;50.800;6.772;2023-11-21T08:32:03;20.70;;;17.73;;
11016;SDS011;54687;50.800;6.772;2023-11-21T08:34:30;19.15;;;16.70;;
11016;SDS011;54687;50.800;6.772;2023-11-21T08:36:57;17.50;;;15.70;;
11016;SDS011;54687;50.800;6.772;2023-11-21T08:39:23;19.25;;;16.95;;
11016;SDS011;54687;50.800;6.772;2023-11-21T08:41:53;21.33;;;17.30;;
11016;SDS011;54687;50.800;6.772;2023-11-21T08:44:19;20.60;;;17.88;;
11016;SDS011;54687;50.800;6.772;2023-11-21T08:46:46;20.63;;;17.65;;
11016;SDS011;54687;50.800;6.772;2023-11-21T08:49:13;23.95;;;17.55;;
11016;SDS011;54687;50.800;6.772;2023-11-21T08:51:40;20.33;;;18.20;;
11016;SDS011;54687;50.800;6.772;2023-11-21T08:54:07;21.63;;;17.35;;
11016;SDS011;54687;50.800;6.772;2023-11-21T08:56:34;18.95;;;16.27;;
11016;SDS011;54687;50.800;6.772;2023-11-21T08:59:02;21.27;;;18.13;;
11016;SDS011;54687;50.800;6.772;2023-11-21T09:01:29;26.15;;;19.17;;
11016;SDS011;54687;50.800;6.772;2023-11-21T09:03:58;27.23;;;19.83;;
11016;SDS011;54687;50.800;6.772;2023-11-21T09:06:24;30.67;;;21.42;;
11016;SDS011;54687;50.800;6.772;2023-11-21T09:08:51;24.55;;;19.98;;
11016;SDS011;54687;50.800;6.772;2023-11-21T09:11:18;25.75;;;19.88;;
11016;SDS011;54687;50.800;6.772;2023-11-21T09:13:44;24.65;;;20.13;;
11016;SDS011;54687;50.800;6.772;2023-11-21T09:16:14;25.67;;;19.23;;
11016;SDS011;54687;50.800;6.772;2023-11-21T09:18:41;22.45;;;19.17;;
11016;SDS011;54687;50.800;6.772;2023-11-21T09:21:08;23.10;;;19.52;;
11016;SDS011;54687;50.800;6.772;2023-11-21T09:23:35;23.98;;;19.70;;
11016;SDS011;54687;50.800;6.772;2023-11-21T09:26:02;21.90;;;17.80;;
11016;SDS011;54687;50.800;6.772;2023-11-21T09:28:30;25.88;;;19.48;;
11016;SDS011;54687;50.800;6.772;2023-11-21T09:30:57;22.52;;;19.30;;
11016;SDS011;54687;50.800;6.772;2023-11-21T09:33:25;25.52;;;18.08;;
11016;SDS011;54687;50.800;6.772;2023-11-21T09:35:51;24.27;;;19.80;;
11016;SDS011;54687;50.800;6.772;2023-11-21T09:38:18;26.90;;;21.65;;
11016;SDS011;54687;50.800;6.772;2023-11-21T09:40:44;23.58;;;19.00;;
11016;SDS011;54687;50.800;6.772;2023-11-21T09:43:14;24.45;;;19.80;;
11016;SDS011;54687;50.800;6.772;2023-11-21T09:45:44;29.02;;;20.50;;
11016;SDS011;54687;50.800;6.772;2023-11-21T09:48:12;26.80;;;21.25;;
11016;SDS011;54687;50.800;6.772;2023-11-21T09:50:40;27.98;;;22.00;;
11016;SDS011;54687;50.800;6.772;2023-11-21T09:53:10;25.70;;;19.88;;
11016;SDS011;54687;50.800;6.772;2023-11-21T09:55:42;27.63;;;22.08;;
11016;SDS011;54687;50.800;6.772;2023-11-21T09:58:09;26.00;;;20.30;;
11016;SDS011;54687;50.800;6.772;2023-11-21T10:00:39;28.30;;;22.88;;
11016;SDS011;54687;50.800;6.772;2023-11-21T10:03:06;25.92;;;20.27;;
11016;SDS011;54687;50.800;6.772;2023-11-21T10:05:34;25.73;;;20.60;;
11016;SDS011;54687;50.800;6.772;2023-11-21T10:08:01;27.98;;;21.40;;
11016;SDS011;54687;50.800;6.772;2023-11-21T10:10:31;27.13;;;21.90;;
11016;SDS011;54687;50.800;6.772;2023-11-21T10:13:01;26.90;;;20.40;;
11016;SDS011;54687;50.800;6.772;2023-11-21T10:15:31;25.33;;;20.35;;
11016;SDS011;54687;50.800;6.772;2023-11-21T10:17:59;23.75;;;19.45;;
11016;SDS011;54687;50.800;6.772;2023-11-21T10:20:29;29.63;;;22.45;;
11016;SDS011;54687;50.800;6.772;2023-11-21T10:22:59;30.40;;;22.45;;
11016;SDS011;54687;50.800;6.772;2023-11-21T10:25:28;24.38;;;17.90;;
11016;SDS011;54687;50.800;6.772;2023-11-21T10:27:57;30.42;;;21.73;;
11016;SDS011;54687;50.800;6.772;2023-11-21T10:30:27;31.20;;;22.00;;
11016;SDS011;54687;50.800;6.772;2023-11-21T10:32:58;30.83;;;22.38;;
11016;SDS011;54687;50.800;6.772;2023-11-21T10:35:25;29.88;;;21.33;;
11016;SDS011;54687;50.800;6.772;2023-11-21T10:38:05;33.75;;;21.45;;
11016;SDS011;54687;50.800;6.772;2023-11-21T10:40:34;33.55;;;21.35;;
11016;SDS011;54687;50.800;6.772;2023-11-21T10:43:05;34.95;;;22.67;;
11016;SDS011;54687;50.800;6.772;2023-11-21T10:45:34;33.08;;;22.15;;
11016;SDS011;54687;50.800;6.772;2023-11-21T10:48:04;33.25;;;21.55;;
11016;SDS011;54687;50.800;6.772;2023-11-21T10:50:32;30.65;;;20.63;;
11016;SDS011;54687;50.800;6.772;2023-11-21T10:53:00;31.60;;;21.58;;
11016;SDS011;54687;50.800;6.772;2023-11-21T10:55:28;30.40;;;22.10;;
11016;SDS011;54687;50.800;6.772;2023-11-21T10:57:56;35.78;;;24.88;;
11016;SDS011;54687;50.800;6.772;2023-11-21T11:00:24;30.38;;;22.52;;
11016;SDS011;54687;50.800;6.772;2023-11-21T11:02:52;26.67;;;19.92;;
11016;SDS011;54687;50.800;6.772;2023-11-21T11:05:21;32.28;;;21.98;;
11016;SDS011;54687;50.800;6.772;2023-11-21T11:07:50;32.28;;;21.98;;
11016;SDS011;54687;50.800;6.772;2023-11-21T11:10:19;27.60;;;20.15;;
11016;SDS011;54687;50.800;6.772;2023-11-21T11:12:48;29.52;;;17.92;;
11016;SDS011;54687;50.800;6.772;2023-11-21T11:15:16;28.02;;;19.25;;
11016;SDS011;54687;50.800;6.772;2023-11-21T11:17:43;25.48;;;18.63;;
11016;SDS011;54687;50.800;6.772;2023-11-21T11:20:11;26.90;;;18.65;;
11016;SDS011;54687;50.800;6.772;2023-11-21T11:22:44;26.42;;;18.88;;
11016;SDS011;54687;50.800;6.772;2023-11-21T11:25:29;22.15;;;16.20;;
11016;SDS011;54687;50.800;6.772;2023-11-21T11:28:07;22.90;;;16.50;;
11016;SDS011;54687;50.800;6.772;2023-11-21T11:30:47;28.73;;;17.73;;
11016;SDS011;54687;50.800;6.772;2023-11-21T11:33:31;29.90;;;19.08;;
11016;SDS011;54687;50.800;6.772;2023-11-21T11:36:06;24.95;;;17.38;;
11016;SDS011;54687;50.800;6.772;2023-11-21T11:38:44;27.25;;;19.35;;
11016;SDS011;54687;50.800;6.772;2023-11-21T11:41:23;25.63;;;16.88;;
11016;SDS011;54687;50.800;6.772;2023-11-21T11:43:53;27.15;;;18.05;;
11016;SDS011;54687;50.800;6.772;2023-11-21T11:46:42;28.30;;;17.75;;
11016;SDS011;54687;50.800;6.772;2023-11-21T11:49:23;29.95;;;18.17;;
11016;SDS011;54687;50.800;6.772;2023-11-21T11:54:55;25.30;;;16.52;;
11016;SDS011;54687;50.800;6.772;2023-11-21T11:57:23;27.48;;;19.05;;
11016;SDS011;54687;50.800;6.772;2023-11-21T12:00:07;26.17;;;17.83;;
11016;SDS011;54687;50.800;6.772;2023-11-21T12:02:44;30.10;;;17.98;;
11016;SDS011;54687;50.800;6.772;2023-11-21T12:05:19;26.48;;;17.48;;
11016;SDS011;54687;50.800;6.772;2023-11-21T12:07:56;30.42;;;17.13;;
11016;SDS011;54687;50.800;6.772;2023-11-21T12:10:40;28.55;;;18.25;;
11016;SDS011;54687;50.800;6.772;2023-11-21T12:13:10;30.48;;;18.90;;
11016;SDS011;54687;50.800;6.772;2023-11-21T12:15:40;26.80;;;18.77;;
11016;SDS011;54687;50.800;6.772;2023-11-21T12:18:10;25.67;;;16.85;;
11016;SDS011;54687;50.800;6.772;2023-11-21T12:20:40;27.67;;;17.33;;
11016;SDS011;54687;50.800;6.772;2023-11-21T12:23:25;27.10;;;16.90;;
11016;SDS011;54687;50.800;6.772;2023-11-21T12:25:53;26.83;;;17.00;;
11016;SDS011;54687;50.800;6.772;2023-11-21T12:28:23;27.65;;;17.15;;
11016;SDS011;54687;50.800;6.772;2023-11-21T12:30:53;30.27;;;17.33;;
11016;SDS011;54687;50.800;6.772;2023-11-21T12:33:23;30.60;;;18.40;;
11016;SDS011;54687;50.800;6.772;2023-11-21T12:35:52;27.20;;;17.55;;
11016;SDS011;54687;50.800;6.772;2023-11-21T12:38:33;30.20;;;17.20;;
11016;SDS011;54687;50.800;6.772;2023-11-21T12:41:00;30.17;;;17.70;;
11016;SDS011;54687;50.800;6.772;2023-11-21T12:43:27;28.02;;;17.88;;
11016;SDS011;54687;50.800;6.772;2023-11-21T12:46:04;28.33;;;17.85;;
11016;SDS011;54687;50.800;6.772;2023-11-21T12:48:33;30.77;;;17.75;;
11016;SDS011;54687;50.800;6.772;2023-11-21T12:51:00;31.98;;;18.85;;
11016;SDS011;54687;50.800;6.772;2023-11-21T12:53:27;32.75;;;19.10;;
11016;SDS011;54687;50.800;6.772;2023-11-21T12:56:02;27.42;;;18.92;;
11016;SDS011;54687;50.800;6.772;2023-11-21T12:58:34;26.80;;;18.73;;
11016;SDS011;54687;50.800;6.772;2023-11-21T13:01:01;25.65;;;17.40;;
11016;SDS011;54687;50.800;6.772;2023-11-21T13:03:30;25.25;;;17.30;;
11016;SDS011;54687;50.800;6.772;2023-11-21T13:06:00;22.42;;;15.82;;
11016;SDS011;54687;50.800;6.772;2023-11-21T13:08:33;24.08;;;17.73;;
11016;SDS011;54687;50.800;6.772;2023-11-21T13:11:00;27.95;;;17.17;;
11016;SDS011;54687;50.800;6.772;2023-11-21T13:13:29;28.35;;;17.40;;
11016;SDS011;54687;50.800;6.772;2023-11-21T13:15:59;28.02;;;18.95;;
11016;SDS011;54687;50.800;6.772;2023-11-21T13:18:37;28.52;;;17.48;;
11016;SDS011;54687;50.800;6.772;2023-11-21T13:21:33;24.50;;;16.33;;
11016;SDS011;54687;50.800;6.772;2023-11-21T13:24:08;29.70;;;17.25;;
11016;SDS011;54687;50.800;6.772;2023-11-21T13:26:36;30.63;;;18.95;;
11016;SDS011;54687;50.800;6.772;2023-11-21T13:29:12;30.13;;;18.00;;
11016;SDS011;54687;50.800;6.772;2023-11-21T13:32:07;29.98;;;18.35;;
11016;SDS011;54687;50.800;6.772;2023-11-21T13:34:37;28.50;;;19.75;;
11016;SDS011;54687;50.800;6.772;2023-11-21T13:37:06;28.63;;;18.60;;
11016;SDS011;54687;50.800;6.772;2023-11-21T13:39:36;30.45;;;19.83;;
11016;SDS011;54687;50.800;6.772;2023-11-21T13:42:06;29.30;;;18.45;;
11016;SDS011;54687;50.800;6.772;2023-11-21T13:44:40;29.30;;;19.10;;
11016;SDS011;54687;50.800;6.772;2023-11-21T13:47:13;28.75;;;17.92;;
11016;SDS011;54687;50.800;6.772;2023-11-21T13:49:41;25.65;;;17.30;;
11016;SDS011;54687;50.800;6.772;2023-11-21T13:52:16;23.77;;;16.65;;
11016;SDS011;54687;50.800;6.772;2023-11-21T13:54:48;24.63;;;15.88;;
11016;SDS011;54687;50.800;6.772;2023-11-21T13:57:16;21.50;;;14.93;;
11016;SDS011;54687;50.800;6.772;2023-11-21T13:59:44;22.33;;;15.90;;
11016;SDS011;54687;50.800;6.772;2023-11-21T14:02:11;22.42;;;15.65;;
11016;SDS011;54687;50.800;6.772;2023-11-21T14:04:43;25.85;;;17.13;;
11016;SDS011;54687;50.800;6.772;2023-11-21T14:07:21;23.75;;;15.90;;
11016;SDS011;54687;50.800;6.772;2023-11-21T14:09:56;23.50;;;14.95;;
11016;SDS011;54687;50.800;6.772;2023-11-21T14:12:25;25.17;;;15.18;;
11016;SDS011;54687;50.800;6.772;2023-11-21T14:14:56;25.55;;;17.13;;
11016;SDS011;54687;50.800;6.772;2023-11-21T14:17:28;23.33;;;15.98;;
11016;SDS011;54687;50.800;6.772;2023-11-21T14:19:55;24.20;;;15.43;;
11016;SDS011;54687;50.800;6.772;2023-11-21T14:22:23;21.25;;;16.05;;
11016;SDS011;54687;50.800;6.772;2023-11-21T14:24:55;23.88;;;16.30;;
11016;SDS011;54687;50.800;6.772;2023-11-21T14:27:25;27.35;;;16.75;;
11016;SDS011;54687;50.800;6.772;2023-11-21T14:29:52;27.55;;;17.75;;
11016;SDS011;54687;50.800;6.772;2023-11-21T14:32:23;28.92;;;17.35;;